Malaviya Twenty — AUEV — position and weather

sailwx.info

Track history (hours):
 
Tides and Currents Weather Stations Pressure Air Temp Water Temp Dewpoint Dewpoint Depression Visibility Wind Speed Wind Dir Waves Ship Positions

Malaviya Twenty

Last reported at 2014-Oct-31 15:33 UTC. Time now 2014-Oct-31 15:40 UTC.
Position N 53°03' E 001°28'.

Length 72 m; draft 4.5 m.

Type: Ship. MMSI: 419504000.

Date/timePositionNaut miles runAvg speedWind from/ knotsBaromVisibWave heightAir tempDewpointWater temp
2014-Oct-31 15:33N 53°03' E 001°28'9 9.0
2014-Oct-31 14:33N 53°12' E 001°28'10 8.9
2014-Oct-31 13:26N 53°22' E 001°28'6 0.2
2014-Oct-30 11:33N 53°15' E 001°28'9 8.7
2014-Oct-30 10:33N 53°07' E 001°28'9 8.6
2014-Oct-30 09:33N 52°58' E 001°31'9 8.8
2014-Oct-30 08:33N 52°51' E 001°39'10 9.9
2014-Oct-30 07:33N 52°42' E 001°47'7 7.1
2014-Oct-30 06:33N 52°35' E 001°44'0 0.5
2014-Oct-30 05:32N 52°35' E 001°44'0 0.0
2014-Oct-30 04:32N 52°35' E 001°44'0 0.0
2014-Oct-30 03:32N 52°35' E 001°44'0 0.0
2014-Oct-30 02:32N 52°35' E 001°44'0 0.0
2014-Oct-30 01:32N 52°35' E 001°44'0 0.0
2014-Oct-30 00:32N 52°35' E 001°44'0 0.0
2014-Oct-29 23:32N 52°35' E 001°44'0 0.0
2014-Oct-29 22:32N 52°35' E 001°44'0 0.0
2014-Oct-29 21:32N 52°35' E 001°44'0 0.0
2014-Oct-29 20:32N 52°35' E 001°44'0 0.0
2014-Oct-29 19:32N 52°35' E 001°44'0 0.0
2014-Oct-29 18:32N 52°35' E 001°44'0 0.0
2014-Oct-29 17:32N 52°35' E 001°44'0 0.0
2014-Oct-29 16:32N 52°35' E 001°44'1 1.3
2014-Oct-29 15:34N 52°34' E 001°45'6 6.2
2014-Oct-29 14:33N 52°41' E 001°46'1010.0
2014-Oct-29 13:33N 52°49' E 001°55'9 8.5
2014-Oct-29 12:33N 52°55' E 002°05'10 8.2
2014-Oct-29 11:23N 53°03' E 002°14'0 0.0
2014-Oct-29 10:33N 53°03' E 002°14'1 0.1
2014-Oct-29 04:28N 53°03' E 002°14'1 0.2
2014-Oct-29 01:29N 53°03' E 002°14'0 0.0
2014-Oct-29 00:03N 53°03' E 002°14'2 0.2
2014-Oct-28 15:06N 53°01' E 002°14'0 0.4
2014-Oct-28 14:10N 53°01' E 002°14'1 1.3
2014-Oct-28 13:33N 53°02' E 002°14'1 0.9
2014-Oct-28 12:32N 53°03' E 002°14'0 0.0
2014-Oct-28 11:34N 53°03' E 002°14'0 0.1
2014-Oct-28 10:33N 53°03' E 002°14'0 0.0
2014-Oct-28 09:34N 53°03' E 002°14'0 0.4
2014-Oct-28 08:33N 53°03' E 002°14'2 2.3
2014-Oct-28 07:31N 53°01' E 002°14'1 1.2
2014-Oct-28 06:33N 53°02' E 002°14'1 0.5
2014-Oct-28 05:32N 53°02' E 002°14'0 0.1
2014-Oct-28 04:34N 53°02' E 002°14'0 0.1
2014-Oct-28 03:34N 53°02' E 002°14'3 2.5
2014-Oct-28 02:26N 52°60' E 002°14'1 1.5
2014-Oct-28 01:33N 53°01' E 002°13'2 2.1
2014-Oct-28 00:33N 53°03' E 002°13'1 0.8
2014-Oct-27 23:33N 53°03' E 002°14'0 0.0
2014-Oct-27 21:33N 53°03' E 002°14'0 0.0
2014-Oct-27 20:30N 53°03' E 002°14'1 0.1
2014-Oct-27 14:11N 53°02' E 002°14'3 4.0
2014-Oct-27 13:31N 53°05' E 002°14'8 7.1
2014-Oct-27 12:24N 53°11' E 002°06'9 0.2
2014-Oct-25 11:24N 53°03' E 002°14'0 0.0
2014-Oct-25 09:27N 53°03' E 002°14'0 0.0
2014-Oct-25 08:33N 53°03' E 002°14'0 0.0
2014-Oct-25 07:33N 53°03' E 002°14'3 1.7
2014-Oct-25 05:33N 52°60' E 002°15'2 1.1
2014-Oct-25 03:32N 53°02' E 002°14'0 0.4
2014-Oct-25 02:27N 53°02' E 002°14'3 3.1
2014-Oct-25 01:31N 52°59' E 002°14'1 0.9
2014-Oct-25 00:09N 53°01' E 002°14'1 1.7
2014-Oct-24 23:30N 53°02' E 002°14'2 2.1
2014-Oct-24 22:23N 52°59' E 002°13'7 8.9
2014-Oct-24 21:33N 52°55' E 002°04'9 8.6
2014-Oct-24 20:33N 52°48' E 001°54'9 8.8
2014-Oct-24 19:34N 52°41' E 001°46'7 6.9
2014-Oct-24 18:34N 52°34' E 001°45'1 1.4
2014-Oct-24 17:32N 52°36' E 001°44'0 0.0
2014-Oct-24 16:32N 52°36' E 001°44'0 0.0
2014-Oct-24 15:32N 52°36' E 001°44'1 1.5
2014-Oct-24 14:33N 52°35' E 001°45'7 6.7
2014-Oct-24 13:33N 52°41' E 001°46'8 8.4
2014-Oct-24 12:33N 52°48' E 001°54'9 9.0
2014-Oct-24 11:33N 52°55' E 002°04'57 1.7
2014-Oct-23 01:20N 53°42' E 001°08'2 2.6
2014-Oct-23 00:23N 53°42' E 001°04'1 1.0
2014-Oct-22 23:22N 53°42' E 001°06'1 0.8
2014-Oct-22 22:33N 53°42' E 001°05'30 3.7
2014-Oct-22 14:29N 53°15' E 001°28'8 8.3
2014-Oct-22 13:33N 53°07' E 001°28'8 8.2
2014-Oct-22 12:33N 52°59' E 001°30'9 9.2
2014-Oct-22 11:33N 52°51' E 001°38'9 9.4
2014-Oct-22 10:33N 52°43' E 001°46'9 8.9
2014-Oct-22 09:33N 52°34' E 001°44'1 1.2
2014-Oct-22 08:32N 52°36' E 001°44'0 0.0
2014-Oct-22 07:32N 52°36' E 001°44'0 0.0
2014-Oct-22 06:32N 52°36' E 001°44'0 0.0
2014-Oct-22 05:32N 52°36' E 001°44'0 0.0
2014-Oct-22 04:32N 52°36' E 001°44'0 0.0
2014-Oct-22 03:32N 52°36' E 001°44'0 0.0
2014-Oct-22 02:32N 52°36' E 001°44'0 0.0
2014-Oct-22 01:31N 52°36' E 001°44'0 0.0
2014-Oct-22 00:31N 52°36' E 001°44'0 0.0
2014-Oct-21 23:31N 52°36' E 001°44'0 0.0
2014-Oct-21 22:31N 52°36' E 001°44'0 0.0
2014-Oct-21 21:31N 52°36' E 001°44'0 0.0
2014-Oct-21 20:31N 52°36' E 001°44'0 0.0
2014-Oct-21 19:31N 52°36' E 001°44'0 0.0
2014-Oct-21 18:31N 52°36' E 001°44'0 0.0
2014-Oct-21 17:31N 52°36' E 001°44'0 0.0
2014-Oct-21 16:31N 52°36' E 001°44'  
Track history (hours):
 
Tides and Currents Weather Stations Pressure Air Temp Water Temp Dewpoint Dewpoint Depression Visibility Wind Speed Wind Dir Waves Ship Positions

Malaviya Twenty

Last reported at 2014-Oct-31 15:33 UTC. Time now 2014-Oct-31 15:40 UTC.
Position N 53°03' E 001°28'.

Length 72 m; draft 4.5 m.

Type: Ship. MMSI: 419504000.

Date/timePositionNaut miles runAvg speedWind from/ knotsBaromVisibWave heightAir tempDewpointWater temp
2014-Oct-31 15:33N 53°03' E 001°28'9 9.0
2014-Oct-31 14:33N 53°12' E 001°28'10 8.9
2014-Oct-31 13:26N 53°22' E 001°28'6 0.2
2014-Oct-30 11:33N 53°15' E 001°28'9 8.7
2014-Oct-30 10:33N 53°07' E 001°28'9 8.6
2014-Oct-30 09:33N 52°58' E 001°31'9 8.8
2014-Oct-30 08:33N 52°51' E 001°39'10 9.9
2014-Oct-30 07:33N 52°42' E 001°47'7 7.1
2014-Oct-30 06:33N 52°35' E 001°44'0 0.5
2014-Oct-30 05:32N 52°35' E 001°44'0 0.0
2014-Oct-30 04:32N 52°35' E 001°44'0 0.0
2014-Oct-30 03:32N 52°35' E 001°44'0 0.0
2014-Oct-30 02:32N 52°35' E 001°44'0 0.0
2014-Oct-30 01:32N 52°35' E 001°44'0 0.0
2014-Oct-30 00:32N 52°35' E 001°44'0 0.0
2014-Oct-29 23:32N 52°35' E 001°44'0 0.0
2014-Oct-29 22:32N 52°35' E 001°44'0 0.0
2014-Oct-29 21:32N 52°35' E 001°44'0 0.0
2014-Oct-29 20:32N 52°35' E 001°44'0 0.0
2014-Oct-29 19:32N 52°35' E 001°44'0 0.0
2014-Oct-29 18:32N 52°35' E 001°44'0 0.0
2014-Oct-29 17:32N 52°35' E 001°44'0 0.0
2014-Oct-29 16:32N 52°35' E 001°44'1 1.3
2014-Oct-29 15:34N 52°34' E 001°45'6 6.2
2014-Oct-29 14:33N 52°41' E 001°46'1010.0
2014-Oct-29 13:33N 52°49' E 001°55'9 8.5
2014-Oct-29 12:33N 52°55' E 002°05'10 8.2
2014-Oct-29 11:23N 53°03' E 002°14'0 0.0
2014-Oct-29 10:33N 53°03' E 002°14'1 0.1
2014-Oct-29 04:28N 53°03' E 002°14'1 0.2
2014-Oct-29 01:29N 53°03' E 002°14'0 0.0
2014-Oct-29 00:03N 53°03' E 002°14'2 0.2
2014-Oct-28 15:06N 53°01' E 002°14'0 0.4
2014-Oct-28 14:10N 53°01' E 002°14'1 1.3
2014-Oct-28 13:33N 53°02' E 002°14'1 0.9
2014-Oct-28 12:32N 53°03' E 002°14'0 0.0
2014-Oct-28 11:34N 53°03' E 002°14'0 0.1
2014-Oct-28 10:33N 53°03' E 002°14'0 0.0
2014-Oct-28 09:34N 53°03' E 002°14'0 0.4
2014-Oct-28 08:33N 53°03' E 002°14'2 2.3
2014-Oct-28 07:31N 53°01' E 002°14'1 1.2
2014-Oct-28 06:33N 53°02' E 002°14'1 0.5
2014-Oct-28 05:32N 53°02' E 002°14'0 0.1
2014-Oct-28 04:34N 53°02' E 002°14'0 0.1
2014-Oct-28 03:34N 53°02' E 002°14'3 2.5
2014-Oct-28 02:26N 52°60' E 002°14'1 1.5
2014-Oct-28 01:33N 53°01' E 002°13'2 2.1
2014-Oct-28 00:33N 53°03' E 002°13'1 0.8
2014-Oct-27 23:33N 53°03' E 002°14'0 0.0
2014-Oct-27 21:33N 53°03' E 002°14'0 0.0
2014-Oct-27 20:30N 53°03' E 002°14'1 0.1
2014-Oct-27 14:11N 53°02' E 002°14'3 4.0
2014-Oct-27 13:31N 53°05' E 002°14'8 7.1
2014-Oct-27 12:24N 53°11' E 002°06'9 0.2
2014-Oct-25 11:24N 53°03' E 002°14'0 0.0
2014-Oct-25 09:27N 53°03' E 002°14'0 0.0
2014-Oct-25 08:33N 53°03' E 002°14'0 0.0
2014-Oct-25 07:33N 53°03' E 002°14'3 1.7
2014-Oct-25 05:33N 52°60' E 002°15'2 1.1
2014-Oct-25 03:32N 53°02' E 002°14'0 0.4
2014-Oct-25 02:27N 53°02' E 002°14'3 3.1
2014-Oct-25 01:31N 52°59' E 002°14'1 0.9
2014-Oct-25 00:09N 53°01' E 002°14'1 1.7
2014-Oct-24 23:30N 53°02' E 002°14'2 2.1
2014-Oct-24 22:23N 52°59' E 002°13'7 8.9
2014-Oct-24 21:33N 52°55' E 002°04'9 8.6
2014-Oct-24 20:33N 52°48' E 001°54'9 8.8
2014-Oct-24 19:34N 52°41' E 001°46'7 6.9
2014-Oct-24 18:34N 52°34' E 001°45'1 1.4
2014-Oct-24 17:32N 52°36' E 001°44'0 0.0
2014-Oct-24 16:32N 52°36' E 001°44'0 0.0
2014-Oct-24 15:32N 52°36' E 001°44'1 1.5
2014-Oct-24 14:33N 52°35' E 001°45'7 6.7
2014-Oct-24 13:33N 52°41' E 001°46'8 8.4
2014-Oct-24 12:33N 52°48' E 001°54'9 9.0
2014-Oct-24 11:33N 52°55' E 002°04'57 1.7
2014-Oct-23 01:20N 53°42' E 001°08'2 2.6
2014-Oct-23 00:23N 53°42' E 001°04'1 1.0
2014-Oct-22 23:22N 53°42' E 001°06'1 0.8
2014-Oct-22 22:33N 53°42' E 001°05'30 3.7
2014-Oct-22 14:29N 53°15' E 001°28'8 8.3
2014-Oct-22 13:33N 53°07' E 001°28'8 8.2
2014-Oct-22 12:33N 52°59' E 001°30'9 9.2
2014-Oct-22 11:33N 52°51' E 001°38'9 9.4
2014-Oct-22 10:33N 52°43' E 001°46'9 8.9
2014-Oct-22 09:33N 52°34' E 001°44'1 1.2
2014-Oct-22 08:32N 52°36' E 001°44'0 0.0
2014-Oct-22 07:32N 52°36' E 001°44'0 0.0
2014-Oct-22 06:32N 52°36' E 001°44'0 0.0
2014-Oct-22 05:32N 52°36' E 001°44'0 0.0
2014-Oct-22 04:32N 52°36' E 001°44'0 0.0
2014-Oct-22 03:32N 52°36' E 001°44'0 0.0
2014-Oct-22 02:32N 52°36' E 001°44'0 0.0
2014-Oct-22 01:31N 52°36' E 001°44'0 0.0
2014-Oct-22 00:31N 52°36' E 001°44'0 0.0
2014-Oct-21 23:31N 52°36' E 001°44'0 0.0
2014-Oct-21 22:31N 52°36' E 001°44'0 0.0
2014-Oct-21 21:31N 52°36' E 001°44'0 0.0
2014-Oct-21 20:31N 52°36' E 001°44'0 0.0
2014-Oct-21 19:31N 52°36' E 001°44'0 0.0
2014-Oct-21 18:31N 52°36' E 001°44'0 0.0
2014-Oct-21 17:31N 52°36' E 001°44'0 0.0
2014-Oct-21 16:31N 52°36' E 001°44'  

Dump ship's entire track history